메인 페이지
METAR-TAF:

METAR-TAF

공항 :

라스베이거스, 네바다, 미국

매캐런 국제공항

위도: 36-04-44N, 경도: 115-09-19W, 고도: 663m

현재 날씨관측

예보는 11분 전, 04:56시(UTC)에 발표되었습니다.
무풍
온도 28°C
습도 13%
기압 1014 hPa
시정: 16.1km
고도 25000ft 상공 구름 보통

METAR: KLAS 250456Z 00000KT 10SM SCT250 28/M03 A2994 RMK AO2 SLP115 T02781028

시각: 22:07 (05:07 UTC)

예보

예보는 2 시간 28분 전, 02:39시(UTC)에 발표되었습니다.
예보 대상 시간: 25일 03시부터 26일 06시까지 (UTC)
동북동6kt
시정: 10km
고도 25000ft 상공 구름 많음
25일 0600시부터 (UTC)
북북동9kt
시정: 10km
고도 25000ft 상공 구름 많음
25일 0900시부터 (UTC)
6kt
시정: 10km
고도 25000ft 상공 구름 많음
25일 1400시부터 (UTC)
여러 방향의 바람 4kt
시정: 10km
고도 25000ft 상공 구름 보통
25일 1900시부터 (UTC)
북동6kt
시정: 10km
고도 25000ft 상공 구름 많음
26일 0300시부터 (UTC)
서남서7kt
시정: 10km
고도 20000ft 상공 구름 보통

TAF: KLAS 250239Z 2503/2606 06006KT P6SM BKN250 FM250600 02009KT P6SM BKN250 FM250900 18006KT P6SM BKN250 FM251400 VRB04KT P6SM SCT250 FM251900 05006KT P6SM BKN250 FM260300 25007KT P6SM SCT200

4,000개 이상의 공항 관측 자료 및 예보 (METAR 및 TAF 보고).

지도상에서 검색 가능한 기상관측소가 노란 점과 빨간 점으로 표시되어 있습니다.

기상관측소 명을 보려면 표시 위로 마우스를 이동하세요.

날씨 관측과 예보를 보려면 클릭하세요.

지도 변경 : 확대하려면 엑스 표시가 있는 녹색 버튼, 축소하려면 빼기 표시가 있는 녹색 버튼, 다음 페이지의 지도를 보려면 녹색 화살표를 클릭하세요.


METAR-TAF: